sensor_id;sensor_type;location;lat;lon;timestamp;P1;durP1;ratioP1;P2;durP2;ratioP2
74614;SDS011;63121;51.458;-0.110;2022-11-02T00:00:16;7.03;;;1.67;;
74614;SDS011;63121;51.458;-0.110;2022-11-02T00:02:42;3.30;;;0.98;;
74614;SDS011;63121;51.458;-0.110;2022-11-02T00:05:10;7.57;;;0.95;;
74614;SDS011;63121;51.458;-0.110;2022-11-02T00:07:36;9.57;;;1.45;;
74614;SDS011;63121;51.458;-0.110;2022-11-02T00:10:02;8.68;;;0.88;;
74614;SDS011;63121;51.458;-0.110;2022-11-02T00:12:28;7.03;;;0.77;;
74614;SDS011;63121;51.458;-0.110;2022-11-02T00:14:53;4.60;;;0.53;;
74614;SDS011;63121;51.458;-0.110;2022-11-02T00:17:18;5.35;;;0.82;;
74614;SDS011;63121;51.458;-0.110;2022-11-02T00:19:44;4.22;;;0.77;;
74614;SDS011;63121;51.458;-0.110;2022-11-02T00:22:09;7.32;;;1.00;;
74614;SDS011;63121;51.458;-0.110;2022-11-02T00:24:34;3.22;;;0.68;;
74614;SDS011;63121;51.458;-0.110;2022-11-02T00:27:00;5.70;;;0.90;;
74614;SDS011;63121;51.458;-0.110;2022-11-02T00:29:26;4.75;;;0.88;;
74614;SDS011;63121;51.458;-0.110;2022-11-02T00:31:51;1.90;;;0.55;;
74614;SDS011;63121;51.458;-0.110;2022-11-02T00:34:17;3.40;;;0.50;;
74614;SDS011;63121;51.458;-0.110;2022-11-02T00:36:42;1.63;;;0.57;;
74614;SDS011;63121;51.458;-0.110;2022-11-02T00:39:08;5.38;;;0.93;;
74614;SDS011;63121;51.458;-0.110;2022-11-02T00:41:33;2.45;;;0.70;;
74614;SDS011;63121;51.458;-0.110;2022-11-02T00:43:58;3.60;;;0.70;;
74614;SDS011;63121;51.458;-0.110;2022-11-02T00:46:24;5.95;;;0.70;;
74614;SDS011;63121;51.458;-0.110;2022-11-02T00:48:49;3.33;;;0.65;;
74614;SDS011;63121;51.458;-0.110;2022-11-02T00:51:14;4.47;;;0.60;;
74614;SDS011;63121;51.458;-0.110;2022-11-02T00:53:40;4.40;;;0.77;;
74614;SDS011;63121;51.458;-0.110;2022-11-02T00:56:05;3.33;;;0.50;;
74614;SDS011;63121;51.458;-0.110;2022-11-02T00:58:31;1.10;;;0.32;;
74614;SDS011;63121;51.458;-0.110;2022-11-02T01:00:56;3.33;;;0.50;;
74614;SDS011;63121;51.458;-0.110;2022-11-02T01:03:22;6.65;;;0.73;;
74614;SDS011;63121;51.458;-0.110;2022-11-02T01:05:47;3.03;;;0.50;;
74614;SDS011;63121;51.458;-0.110;2022-11-02T01:08:13;6.10;;;0.90;;
74614;SDS011;63121;51.458;-0.110;2022-11-02T01:10:38;2.80;;;0.60;;
74614;SDS011;63121;51.458;-0.110;2022-11-02T01:13:03;6.13;;;0.65;;
74614;SDS011;63121;51.458;-0.110;2022-11-02T01:15:29;3.83;;;0.60;;
74614;SDS011;63121;51.458;-0.110;2022-11-02T01:17:54;5.38;;;0.82;;
74614;SDS011;63121;51.458;-0.110;2022-11-02T01:20:20;4.60;;;1.00;;
74614;SDS011;63121;51.458;-0.110;2022-11-02T01:22:45;2.55;;;0.60;;
74614;SDS011;63121;51.458;-0.110;2022-11-02T01:25:11;1.83;;;0.50;;
74614;SDS011;63121;51.458;-0.110;2022-11-02T01:27:36;3.47;;;0.50;;
74614;SDS011;63121;51.458;-0.110;2022-11-02T01:30:03;4.50;;;0.95;;
74614;SDS011;63121;51.458;-0.110;2022-11-02T01:32:29;3.17;;;0.77;;
74614;SDS011;63121;51.458;-0.110;2022-11-02T01:34:54;7.97;;;0.80;;
74614;SDS011;63121;51.458;-0.110;2022-11-02T01:37:20;3.10;;;0.57;;
74614;SDS011;63121;51.458;-0.110;2022-11-02T01:39:45;7.05;;;0.90;;
74614;SDS011;63121;51.458;-0.110;2022-11-02T01:42:15;4.77;;;0.60;;
74614;SDS011;63121;51.458;-0.110;2022-11-02T01:44:42;1.95;;;0.77;;
74614;SDS011;63121;51.458;-0.110;2022-11-02T01:47:12;5.40;;;0.57;;
74614;SDS011;63121;51.458;-0.110;2022-11-02T01:49:43;4.43;;;0.57;;
74614;SDS011;63121;51.458;-0.110;2022-11-02T01:52:16;2.67;;;0.70;;
74614;SDS011;63121;51.458;-0.110;2022-11-02T01:54:50;4.68;;;1.05;;
74614;SDS011;63121;51.458;-0.110;2022-11-02T01:57:19;1.95;;;0.70;;
74614;SDS011;63121;51.458;-0.110;2022-11-02T02:02:24;2.55;;;0.75;;
74614;SDS011;63121;51.458;-0.110;2022-11-02T02:05:24;2.95;;;1.00;;
74614;SDS011;63121;51.458;-0.110;2022-11-02T02:07:43;4.72;;;0.80;;
74614;SDS011;63121;51.458;-0.110;2022-11-02T02:10:09;9.10;;;1.08;;
74614;SDS011;63121;51.458;-0.110;2022-11-02T02:12:36;6.05;;;1.45;;
74614;SDS011;63121;51.458;-0.110;2022-11-02T02:15:03;2.58;;;0.50;;
74614;SDS011;63121;51.458;-0.110;2022-11-02T02:17:44;4.85;;;0.82;;
74614;SDS011;63121;51.458;-0.110;2022-11-02T02:31:28;4.18;;;0.77;;
74614;SDS011;63121;51.458;-0.110;2022-11-02T02:34:03;3.20;;;0.60;;
74614;SDS011;63121;51.458;-0.110;2022-11-02T02:36:48;3.03;;;0.43;;
74614;SDS011;63121;51.458;-0.110;2022-11-02T02:50:46;5.65;;;0.80;;
74614;SDS011;63121;51.458;-0.110;2022-11-02T02:53:14;7.13;;;0.88;;
74614;SDS011;63121;51.458;-0.110;2022-11-02T02:55:44;4.65;;;0.60;;
74614;SDS011;63121;51.458;-0.110;2022-11-02T02:58:12;11.60;;;1.25;;
74614;SDS011;63121;51.458;-0.110;2022-11-02T03:00:43;7.93;;;1.00;;
74614;SDS011;63121;51.458;-0.110;2022-11-02T03:03:10;5.53;;;0.70;;
74614;SDS011;63121;51.458;-0.110;2022-11-02T03:05:41;8.80;;;1.83;;
74614;SDS011;63121;51.458;-0.110;2022-11-02T03:08:11;7.15;;;0.85;;
74614;SDS011;63121;51.458;-0.110;2022-11-02T03:10:47;6.03;;;0.65;;
74614;SDS011;63121;51.458;-0.110;2022-11-02T03:13:19;7.20;;;0.85;;
74614;SDS011;63121;51.458;-0.110;2022-11-02T03:16:02;4.57;;;0.80;;
74614;SDS011;63121;51.458;-0.110;2022-11-02T03:18:49;5.20;;;1.10;;
74614;SDS011;63121;51.458;-0.110;2022-11-02T03:24:03;9.05;;;1.48;;
74614;SDS011;63121;51.458;-0.110;2022-11-02T03:26:46;6.20;;;0.93;;
74614;SDS011;63121;51.458;-0.110;2022-11-02T03:29:24;5.10;;;0.93;;
74614;SDS011;63121;51.458;-0.110;2022-11-02T03:36:57;6.43;;;1.17;;
74614;SDS011;63121;51.458;-0.110;2022-11-02T03:39:28;9.60;;;1.95;;
74614;SDS011;63121;51.458;-0.110;2022-11-02T03:41:59;6.43;;;0.95;;
74614;SDS011;63121;51.458;-0.110;2022-11-02T03:44:27;5.07;;;0.80;;
74614;SDS011;63121;51.458;-0.110;2022-11-02T03:46:56;7.28;;;1.00;;
74614;SDS011;63121;51.458;-0.110;2022-11-02T03:49:24;6.03;;;1.00;;
74614;SDS011;63121;51.458;-0.110;2022-11-02T03:51:52;5.10;;;1.13;;
74614;SDS011;63121;51.458;-0.110;2022-11-02T03:54:24;5.20;;;0.93;;
74614;SDS011;63121;51.458;-0.110;2022-11-02T03:56:56;7.55;;;0.88;;
74614;SDS011;63121;51.458;-0.110;2022-11-02T03:59:30;6.38;;;1.20;;
74614;SDS011;63121;51.458;-0.110;2022-11-02T04:01:56;4.82;;;0.90;;
74614;SDS011;63121;51.458;-0.110;2022-11-02T04:04:23;12.32;;;1.60;;
74614;SDS011;63121;51.458;-0.110;2022-11-02T04:06:49;7.88;;;1.00;;
74614;SDS011;63121;51.458;-0.110;2022-11-02T04:09:15;4.10;;;0.90;;
74614;SDS011;63121;51.458;-0.110;2022-11-02T04:11:41;6.00;;;1.00;;
74614;SDS011;63121;51.458;-0.110;2022-11-02T04:14:25;5.57;;;1.15;;
74614;SDS011;63121;51.458;-0.110;2022-11-02T04:17:12;6.47;;;1.23;;
74614;SDS011;63121;51.458;-0.110;2022-11-02T04:19:56;12.52;;;1.38;;
74614;SDS011;63121;51.458;-0.110;2022-11-02T04:22:21;7.20;;;1.10;;
74614;SDS011;63121;51.458;-0.110;2022-11-02T04:25:06;15.07;;;1.45;;
74614;SDS011;63121;51.458;-0.110;2022-11-02T04:27:49;8.25;;;1.00;;
74614;SDS011;63121;51.458;-0.110;2022-11-02T04:30:17;5.32;;;0.90;;
74614;SDS011;63121;51.458;-0.110;2022-11-02T04:32:44;7.93;;;1.08;;
74614;SDS011;63121;51.458;-0.110;2022-11-02T04:35:30;9.60;;;1.42;;
74614;SDS011;63121;51.458;-0.110;2022-11-02T04:37:57;12.48;;;1.60;;
74614;SDS011;63121;51.458;-0.110;2022-11-02T04:40:42;5.95;;;0.90;;
74614;SDS011;63121;51.458;-0.110;2022-11-02T04:43:08;4.78;;;0.95;;
74614;SDS011;63121;51.458;-0.110;2022-11-02T04:45:33;4.88;;;1.13;;
74614;SDS011;63121;51.458;-0.110;2022-11-02T04:48:03;6.40;;;1.13;;
74614;SDS011;63121;51.458;-0.110;2022-11-02T04:50:30;7.82;;;1.17;;
74614;SDS011;63121;51.458;-0.110;2022-11-02T04:52:57;9.80;;;1.42;;
74614;SDS011;63121;51.458;-0.110;2022-11-02T04:55:23;9.05;;;1.50;;
74614;SDS011;63121;51.458;-0.110;2022-11-02T04:57:49;8.40;;;1.15;;
74614;SDS011;63121;51.458;-0.110;2022-11-02T05:00:15;10.82;;;1.10;;
74614;SDS011;63121;51.458;-0.110;2022-11-02T05:02:40;6.90;;;1.13;;
74614;SDS011;63121;51.458;-0.110;2022-11-02T05:05:06;12.20;;;1.20;;
74614;SDS011;63121;51.458;-0.110;2022-11-02T05:07:32;9.05;;;1.10;;
74614;SDS011;63121;51.458;-0.110;2022-11-02T05:09:57;11.10;;;1.42;;
74614;SDS011;63121;51.458;-0.110;2022-11-02T05:12:22;7.83;;;1.00;;
74614;SDS011;63121;51.458;-0.110;2022-11-02T05:14:48;13.60;;;2.00;;
74614;SDS011;63121;51.458;-0.110;2022-11-02T05:17:13;7.30;;;1.93;;
74614;SDS011;63121;51.458;-0.110;2022-11-02T05:19:40;7.68;;;1.33;;
74614;SDS011;63121;51.458;-0.110;2022-11-02T05:22:06;6.85;;;1.00;;
74614;SDS011;63121;51.458;-0.110;2022-11-02T05:24:31;6.90;;;0.85;;
74614;SDS011;63121;51.458;-0.110;2022-11-02T05:26:57;10.73;;;1.48;;
74614;SDS011;63121;51.458;-0.110;2022-11-02T05:29:24;12.20;;;1.52;;
74614;SDS011;63121;51.458;-0.110;2022-11-02T05:31:50;7.70;;;1.08;;
74614;SDS011;63121;51.458;-0.110;2022-11-02T05:34:15;5.50;;;1.33;;
74614;SDS011;63121;51.458;-0.110;2022-11-02T05:36:41;8.47;;;0.93;;
74614;SDS011;63121;51.458;-0.110;2022-11-02T05:39:06;10.48;;;1.25;;
74614;SDS011;63121;51.458;-0.110;2022-11-02T05:41:31;5.87;;;1.30;;
74614;SDS011;63121;51.458;-0.110;2022-11-02T05:43:57;7.07;;;1.30;;
74614;SDS011;63121;51.458;-0.110;2022-11-02T05:46:22;3.83;;;0.93;;
74614;SDS011;63121;51.458;-0.110;2022-11-02T05:48:47;10.50;;;1.90;;
74614;SDS011;63121;51.458;-0.110;2022-11-02T05:51:13;6.53;;;1.17;;
74614;SDS011;63121;51.458;-0.110;2022-11-02T05:53:38;7.57;;;1.20;;
74614;SDS011;63121;51.458;-0.110;2022-11-02T05:56:05;10.03;;;1.87;;
74614;SDS011;63121;51.458;-0.110;2022-11-02T05:58:32;10.77;;;1.38;;
74614;SDS011;63121;51.458;-0.110;2022-11-02T06:01:01;6.90;;;0.93;;
74614;SDS011;63121;51.458;-0.110;2022-11-02T06:03:28;8.50;;;1.10;;
74614;SDS011;63121;51.458;-0.110;2022-11-02T06:05:55;6.60;;;1.17;;
74614;SDS011;63121;51.458;-0.110;2022-11-02T06:08:21;8.40;;;1.33;;
74614;SDS011;63121;51.458;-0.110;2022-11-02T06:10:46;7.18;;;1.30;;
74614;SDS011;63121;51.458;-0.110;2022-11-02T06:13:12;6.13;;;0.80;;
74614;SDS011;63121;51.458;-0.110;2022-11-02T06:15:38;7.40;;;1.10;;
74614;SDS011;63121;51.458;-0.110;2022-11-02T06:18:03;6.97;;;1.05;;
74614;SDS011;63121;51.458;-0.110;2022-11-02T06:20:28;10.05;;;1.25;;
74614;SDS011;63121;51.458;-0.110;2022-11-02T06:22:54;8.27;;;1.20;;
74614;SDS011;63121;51.458;-0.110;2022-11-02T06:25:19;8.73;;;1.63;;
74614;SDS011;63121;51.458;-0.110;2022-11-02T06:27:54;13.20;;;1.30;;
74614;SDS011;63121;51.458;-0.110;2022-11-02T06:30:24;7.03;;;1.00;;
74614;SDS011;63121;51.458;-0.110;2022-11-02T06:32:51;4.18;;;0.65;;
74614;SDS011;63121;51.458;-0.110;2022-11-02T06:35:18;7.28;;;1.00;;
74614;SDS011;63121;51.458;-0.110;2022-11-02T06:37:44;7.68;;;1.33;;
74614;SDS011;63121;51.458;-0.110;2022-11-02T06:40:10;7.72;;;1.30;;
74614;SDS011;63121;51.458;-0.110;2022-11-02T06:42:36;6.57;;;1.10;;
74614;SDS011;63121;51.458;-0.110;2022-11-02T06:45:02;6.90;;;1.08;;
74614;SDS011;63121;51.458;-0.110;2022-11-02T06:47:30;8.80;;;0.93;;
74614;SDS011;63121;51.458;-0.110;2022-11-02T06:49:57;7.00;;;1.10;;
74614;SDS011;63121;51.458;-0.110;2022-11-02T06:52:23;6.45;;;1.30;;
74614;SDS011;63121;51.458;-0.110;2022-11-02T06:54:49;10.20;;;1.08;;
74614;SDS011;63121;51.458;-0.110;2022-11-02T06:57:14;5.30;;;1.00;;
74614;SDS011;63121;51.458;-0.110;2022-11-02T06:59:39;8.47;;;1.40;;
74614;SDS011;63121;51.458;-0.110;2022-11-02T07:02:05;6.27;;;0.90;;
74614;SDS011;63121;51.458;-0.110;2022-11-02T07:04:30;7.53;;;1.10;;
74614;SDS011;63121;51.458;-0.110;2022-11-02T07:06:55;8.27;;;0.90;;
74614;SDS011;63121;51.458;-0.110;2022-11-02T07:09:21;7.80;;;0.90;;
74614;SDS011;63121;51.458;-0.110;2022-11-02T07:11:46;6.83;;;1.20;;
74614;SDS011;63121;51.458;-0.110;2022-11-02T07:14:11;13.27;;;1.20;;
74614;SDS011;63121;51.458;-0.110;2022-11-02T07:16:37;8.60;;;0.80;;
74614;SDS011;63121;51.458;-0.110;2022-11-02T07:19:02;8.57;;;1.45;;
74614;SDS011;63121;51.458;-0.110;2022-11-02T07:21:28;6.47;;;0.80;;
74614;SDS011;63121;51.458;-0.110;2022-11-02T07:23:53;15.48;;;1.48;;
74614;SDS011;63121;51.458;-0.110;2022-11-02T07:26:18;6.63;;;1.10;;
74614;SDS011;63121;51.458;-0.110;2022-11-02T07:28:44;7.38;;;1.15;;
74614;SDS011;63121;51.458;-0.110;2022-11-02T07:31:10;10.00;;;1.20;;
74614;SDS011;63121;51.458;-0.110;2022-11-02T07:33:35;6.55;;;1.00;;
74614;SDS011;63121;51.458;-0.110;2022-11-02T07:36:03;6.15;;;1.30;;
74614;SDS011;63121;51.458;-0.110;2022-11-02T07:38:30;8.13;;;1.10;;
74614;SDS011;63121;51.458;-0.110;2022-11-02T07:40:55;6.88;;;1.20;;
74614;SDS011;63121;51.458;-0.110;2022-11-02T07:43:21;4.63;;;0.95;;
74614;SDS011;63121;51.458;-0.110;2022-11-02T07:45:46;7.88;;;2.75;;
74614;SDS011;63121;51.458;-0.110;2022-11-02T07:48:11;9.73;;;1.40;;
74614;SDS011;63121;51.458;-0.110;2022-11-02T07:50:37;6.87;;;1.00;;
74614;SDS011;63121;51.458;-0.110;2022-11-02T07:53:02;11.40;;;1.58;;
74614;SDS011;63121;51.458;-0.110;2022-11-02T07:55:29;5.82;;;0.93;;
74614;SDS011;63121;51.458;-0.110;2022-11-02T07:57:58;6.82;;;1.33;;
74614;SDS011;63121;51.458;-0.110;2022-11-02T08:00:27;11.52;;;1.33;;
74614;SDS011;63121;51.458;-0.110;2022-11-02T08:02:57;8.98;;;1.10;;
74614;SDS011;63121;51.458;-0.110;2022-11-02T08:05:24;6.75;;;1.38;;
74614;SDS011;63121;51.458;-0.110;2022-11-02T08:07:56;9.30;;;1.33;;
74614;SDS011;63121;51.458;-0.110;2022-11-02T08:10:30;13.02;;;1.30;;
74614;SDS011;63121;51.458;-0.110;2022-11-02T08:12:57;5.60;;;1.10;;
74614;SDS011;63121;51.458;-0.110;2022-11-02T08:15:22;7.07;;;1.88;;
74614;SDS011;63121;51.458;-0.110;2022-11-02T08:18:01;9.27;;;1.13;;
74614;SDS011;63121;51.458;-0.110;2022-11-02T08:20:36;8.07;;;1.55;;
74614;SDS011;63121;51.458;-0.110;2022-11-02T08:23:02;5.95;;;1.05;;
74614;SDS011;63121;51.458;-0.110;2022-11-02T08:25:28;5.82;;;1.20;;
74614;SDS011;63121;51.458;-0.110;2022-11-02T08:27:57;9.45;;;1.20;;
74614;SDS011;63121;51.458;-0.110;2022-11-02T08:30:24;8.27;;;1.45;;
74614;SDS011;63121;51.458;-0.110;2022-11-02T08:32:50;10.75;;;1.20;;
74614;SDS011;63121;51.458;-0.110;2022-11-02T08:35:15;9.10;;;1.57;;
74614;SDS011;63121;51.458;-0.110;2022-11-02T08:37:41;13.10;;;1.30;;
74614;SDS011;63121;51.458;-0.110;2022-11-02T08:40:06;10.30;;;1.10;;
74614;SDS011;63121;51.458;-0.110;2022-11-02T08:42:32;7.70;;;1.30;;
74614;SDS011;63121;51.458;-0.110;2022-11-02T08:44:58;11.00;;;1.40;;
74614;SDS011;63121;51.458;-0.110;2022-11-02T08:47:23;8.82;;;1.38;;
74614;SDS011;63121;51.458;-0.110;2022-11-02T08:49:49;13.98;;;1.67;;
74614;SDS011;63121;51.458;-0.110;2022-11-02T08:52:16;7.50;;;1.20;;
74614;SDS011;63121;51.458;-0.110;2022-11-02T08:54:42;9.77;;;1.48;;
74614;SDS011;63121;51.458;-0.110;2022-11-02T08:57:08;9.25;;;1.30;;
74614;SDS011;63121;51.458;-0.110;2022-11-02T08:59:33;9.50;;;2.75;;
74614;SDS011;63121;51.458;-0.110;2022-11-02T09:01:58;11.73;;;1.40;;
74614;SDS011;63121;51.458;-0.110;2022-11-02T09:04:24;12.37;;;1.30;;
74614;SDS011;63121;51.458;-0.110;2022-11-02T09:06:49;11.32;;;1.40;;
74614;SDS011;63121;51.458;-0.110;2022-11-02T09:09:15;10.17;;;1.80;;
74614;SDS011;63121;51.458;-0.110;2022-11-02T09:11:40;11.90;;;1.50;;
74614;SDS011;63121;51.458;-0.110;2022-11-02T09:14:07;8.60;;;1.20;;
74614;SDS011;63121;51.458;-0.110;2022-11-02T09:16:32;8.18;;;1.17;;
74614;SDS011;63121;51.458;-0.110;2022-11-02T09:18:58;10.15;;;1.48;;
74614;SDS011;63121;51.458;-0.110;2022-11-02T09:21:24;11.27;;;1.35;;
74614;SDS011;63121;51.458;-0.110;2022-11-02T09:23:49;12.45;;;1.63;;
74614;SDS011;63121;51.458;-0.110;2022-11-02T09:26:14;9.18;;;1.85;;
74614;SDS011;63121;51.458;-0.110;2022-11-02T09:28:40;11.52;;;1.60;;
74614;SDS011;63121;51.458;-0.110;2022-11-02T09:31:05;9.97;;;1.57;;
74614;SDS011;63121;51.458;-0.110;2022-11-02T09:33:31;8.93;;;1.27;;
74614;SDS011;63121;51.458;-0.110;2022-11-02T09:38:26;15.00;;;2.22;;
74614;SDS011;63121;51.458;-0.110;2022-11-02T09:41:00;12.53;;;1.53;;
74614;SDS011;63121;51.458;-0.110;2022-11-02T09:46:17;7.90;;;1.80;;
74614;SDS011;63121;51.458;-0.110;2022-11-02T09:48:56;11.13;;;1.52;;
74614;SDS011;63121;51.458;-0.110;2022-11-02T09:56:24;7.72;;;1.50;;
74614;SDS011;63121;51.458;-0.110;2022-11-02T09:58:58;9.95;;;1.33;;
74614;SDS011;63121;51.458;-0.110;2022-11-02T10:01:40;11.38;;;1.63;;
74614;SDS011;63121;51.458;-0.110;2022-11-02T10:09:53;13.68;;;1.58;;
74614;SDS011;63121;51.458;-0.110;2022-11-02T10:15:31;8.52;;;1.52;;
74614;SDS011;63121;51.458;-0.110;2022-11-02T10:18:03;9.82;;;1.23;;
74614;SDS011;63121;51.458;-0.110;2022-11-02T10:20:47;15.93;;;1.85;;
74614;SDS011;63121;51.458;-0.110;2022-11-02T10:23:19;8.10;;;1.65;;
74614;SDS011;63121;51.458;-0.110;2022-11-02T10:28:20;6.25;;;1.30;;
74614;SDS011;63121;51.458;-0.110;2022-11-02T10:30:50;12.55;;;1.77;;
74614;SDS011;63121;51.458;-0.110;2022-11-02T10:33:17;7.18;;;1.40;;
74614;SDS011;63121;51.458;-0.110;2022-11-02T10:41:28;6.75;;;1.40;;
74614;SDS011;63121;51.458;-0.110;2022-11-02T10:46:46;7.40;;;1.48;;
74614;SDS011;63121;51.458;-0.110;2022-11-02T10:49:28;12.32;;;2.10;;
74614;SDS011;63121;51.458;-0.110;2022-11-02T10:51:56;12.20;;;1.80;;
74614;SDS011;63121;51.458;-0.110;2022-11-02T10:54:21;10.45;;;2.10;;
74614;SDS011;63121;51.458;-0.110;2022-11-02T10:56:46;12.07;;;1.70;;
74614;SDS011;63121;51.458;-0.110;2022-11-02T10:59:20;11.77;;;1.52;;
74614;SDS011;63121;51.458;-0.110;2022-11-02T11:04:25;9.63;;;1.60;;
74614;SDS011;63121;51.458;-0.110;2022-11-02T11:06:51;7.65;;;1.30;;
74614;SDS011;63121;51.458;-0.110;2022-11-02T11:09:24;13.40;;;1.60;;
74614;SDS011;63121;51.458;-0.110;2022-11-02T11:14:22;7.13;;;1.50;;
74614;SDS011;63121;51.458;-0.110;2022-11-02T11:16:53;10.82;;;1.77;;
74614;SDS011;63121;51.458;-0.110;2022-11-02T11:19:31;8.20;;;1.40;;
74614;SDS011;63121;51.458;-0.110;2022-11-02T11:22:03;9.73;;;1.50;;
74614;SDS011;63121;51.458;-0.110;2022-11-02T11:24:46;7.43;;;1.48;;
74614;SDS011;63121;51.458;-0.110;2022-11-02T11:29:38;9.90;;;2.13;;
74614;SDS011;63121;51.458;-0.110;2022-11-02T11:32:12;10.95;;;1.80;;
74614;SDS011;63121;51.458;-0.110;2022-11-02T11:34:40;11.63;;;1.80;;
74614;SDS011;63121;51.458;-0.110;2022-11-02T11:37:09;13.88;;;1.85;;
74614;SDS011;63121;51.458;-0.110;2022-11-02T11:39:39;8.75;;;1.23;;
74614;SDS011;63121;51.458;-0.110;2022-11-02T11:42:14;4.47;;;1.15;;
74614;SDS011;63121;51.458;-0.110;2022-11-02T11:44:44;8.30;;;1.25;;
74614;SDS011;63121;51.458;-0.110;2022-11-02T11:47:15;15.77;;;1.92;;
74614;SDS011;63121;51.458;-0.110;2022-11-02T11:49:45;10.02;;;1.30;;
74614;SDS011;63121;51.458;-0.110;2022-11-02T11:52:20;9.45;;;1.45;;
74614;SDS011;63121;51.458;-0.110;2022-11-02T11:54:54;8.48;;;1.75;;
74614;SDS011;63121;51.458;-0.110;2022-11-02T11:57:28;11.82;;;1.98;;
74614;SDS011;63121;51.458;-0.110;2022-11-02T11:59:56;9.48;;;1.42;;
74614;SDS011;63121;51.458;-0.110;2022-11-02T12:02:29;11.23;;;2.25;;
74614;SDS011;63121;51.458;-0.110;2022-11-02T12:05:07;14.77;;;1.77;;
74614;SDS011;63121;51.458;-0.110;2022-11-02T12:07:45;8.48;;;1.40;;
74614;SDS011;63121;51.458;-0.110;2022-11-02T12:23:56;9.45;;;1.55;;
74614;SDS011;63121;51.458;-0.110;2022-11-02T12:32:08;9.23;;;2.00;;
74614;SDS011;63121;51.458;-0.110;2022-11-02T12:34:59;11.27;;;1.63;;
74614;SDS011;63121;51.458;-0.110;2022-11-02T12:52:07;12.93;;;1.70;;
74614;SDS011;63121;51.458;-0.110;2022-11-02T12:55:04;11.20;;;1.60;;
74614;SDS011;63121;51.458;-0.110;2022-11-02T12:57:33;10.02;;;1.60;;
74614;SDS011;63121;51.458;-0.110;2022-11-02T13:00:06;10.80;;;2.42;;
74614;SDS011;63121;51.458;-0.110;2022-11-02T13:02:57;8.55;;;1.67;;
74614;SDS011;63121;51.458;-0.110;2022-11-02T13:05:28;11.50;;;1.65;;
74614;SDS011;63121;51.458;-0.110;2022-11-02T13:08:02;10.20;;;1.73;;
74614;SDS011;63121;51.458;-0.110;2022-11-02T13:10:42;14.30;;;1.50;;
74614;SDS011;63121;51.458;-0.110;2022-11-02T13:13:14;11.55;;;1.60;;
74614;SDS011;63121;51.458;-0.110;2022-11-02T13:15:43;11.18;;;2.08;;
74614;SDS011;63121;51.458;-0.110;2022-11-02T13:18:23;10.02;;;1.83;;
74614;SDS011;63121;51.458;-0.110;2022-11-02T13:20:55;12.75;;;1.48;;
74614;SDS011;63121;51.458;-0.110;2022-11-02T13:26:03;10.50;;;1.67;;
74614;SDS011;63121;51.458;-0.110;2022-11-02T13:28:40;14.77;;;1.92;;
74614;SDS011;63121;51.458;-0.110;2022-11-02T13:31:43;11.23;;;1.75;;
74614;SDS011;63121;51.458;-0.110;2022-11-02T13:34:17;12.85;;;2.13;;
74614;SDS011;63121;51.458;-0.110;2022-11-02T13:36:51;16.48;;;1.98;;
74614;SDS011;63121;51.458;-0.110;2022-11-02T13:39:27;11.52;;;1.65;;
74614;SDS011;63121;51.458;-0.110;2022-11-02T13:50:10;11.50;;;1.50;;
74614;SDS011;63121;51.458;-0.110;2022-11-02T13:52:40;15.32;;;2.00;;
74614;SDS011;63121;51.458;-0.110;2022-11-02T13:55:23;12.98;;;2.05;;
74614;SDS011;63121;51.458;-0.110;2022-11-02T13:57:57;15.95;;;2.03;;
74614;SDS011;63121;51.458;-0.110;2022-11-02T14:00:26;14.63;;;1.92;;
74614;SDS011;63121;51.458;-0.110;2022-11-02T14:05:40;11.88;;;2.13;;
74614;SDS011;63121;51.458;-0.110;2022-11-02T14:08:33;11.57;;;1.80;;
74614;SDS011;63121;51.458;-0.110;2022-11-02T14:11:25;12.32;;;1.98;;
74614;SDS011;63121;51.458;-0.110;2022-11-02T14:26:58;12.88;;;1.92;;
74614;SDS011;63121;51.458;-0.110;2022-11-02T14:32:09;18.13;;;3.20;;
74614;SDS011;63121;51.458;-0.110;2022-11-02T15:02:18;11.60;;;1.58;;
74614;SDS011;63121;51.458;-0.110;2022-11-02T15:04:48;11.20;;;2.10;;
74614;SDS011;63121;51.458;-0.110;2022-11-02T15:07:17;15.02;;;2.00;;
74614;SDS011;63121;51.458;-0.110;2022-11-02T15:12:43;10.82;;;1.90;;
74614;SDS011;63121;51.458;-0.110;2022-11-02T15:26:47;15.38;;;2.20;;
74614;SDS011;63121;51.458;-0.110;2022-11-02T15:29:25;13.13;;;1.90;;
74614;SDS011;63121;51.458;-0.110;2022-11-02T15:31:55;12.52;;;1.80;;
74614;SDS011;63121;51.458;-0.110;2022-11-02T15:34:30;8.13;;;1.63;;
74614;SDS011;63121;51.458;-0.110;2022-11-02T15:36:59;18.08;;;2.22;;
74614;SDS011;63121;51.458;-0.110;2022-11-02T15:39:26;13.32;;;1.83;;
74614;SDS011;63121;51.458;-0.110;2022-11-02T15:42:00;14.00;;;3.03;;
74614;SDS011;63121;51.458;-0.110;2022-11-02T15:55:52;14.80;;;1.83;;
74614;SDS011;63121;51.458;-0.110;2022-11-02T16:03:43;10.63;;;2.33;;
74614;SDS011;63121;51.458;-0.110;2022-11-02T16:06:10;11.32;;;2.10;;
74614;SDS011;63121;51.458;-0.110;2022-11-02T16:08:35;12.70;;;2.20;;
74614;SDS011;63121;51.458;-0.110;2022-11-02T16:11:10;11.07;;;1.58;;
74614;SDS011;63121;51.458;-0.110;2022-11-02T16:13:37;9.93;;;1.50;;
74614;SDS011;63121;51.458;-0.110;2022-11-02T16:16:05;10.93;;;1.90;;
74614;SDS011;63121;51.458;-0.110;2022-11-02T16:18:38;9.88;;;1.73;;
74614;SDS011;63121;51.458;-0.110;2022-11-02T16:21:05;10.40;;;1.50;;
74614;SDS011;63121;51.458;-0.110;2022-11-02T16:23:35;13.65;;;1.98;;
74614;SDS011;63121;51.458;-0.110;2022-11-02T16:26:04;15.40;;;1.88;;
74614;SDS011;63121;51.458;-0.110;2022-11-02T16:28:34;10.00;;;1.58;;
74614;SDS011;63121;51.458;-0.110;2022-11-02T16:31:20;16.13;;;2.20;;
74614;SDS011;63121;51.458;-0.110;2022-11-02T16:33:58;11.57;;;1.90;;
74614;SDS011;63121;51.458;-0.110;2022-11-02T16:36:29;12.65;;;1.92;;
74614;SDS011;63121;51.458;-0.110;2022-11-02T16:39:05;12.55;;;2.22;;
74614;SDS011;63121;51.458;-0.110;2022-11-02T16:41:40;13.18;;;1.83;;
74614;SDS011;63121;51.458;-0.110;2022-11-02T16:44:27;11.50;;;2.08;;
74614;SDS011;63121;51.458;-0.110;2022-11-02T16:46:56;14.73;;;2.03;;
74614;SDS011;63121;51.458;-0.110;2022-11-02T16:49:23;14.93;;;2.47;;
74614;SDS011;63121;51.458;-0.110;2022-11-02T16:56:54;13.00;;;1.83;;
74614;SDS011;63121;51.458;-0.110;2022-11-02T16:59:24;11.82;;;1.90;;
74614;SDS011;63121;51.458;-0.110;2022-11-02T17:01:49;12.48;;;2.00;;
74614;SDS011;63121;51.458;-0.110;2022-11-02T17:06:54;13.88;;;2.58;;
74614;SDS011;63121;51.458;-0.110;2022-11-02T17:09:35;12.30;;;1.95;;
74614;SDS011;63121;51.458;-0.110;2022-11-02T17:12:12;10.43;;;1.85;;
74614;SDS011;63121;51.458;-0.110;2022-11-02T17:14:45;20.58;;;3.90;;
74614;SDS011;63121;51.458;-0.110;2022-11-02T17:19:54;11.70;;;2.05;;
74614;SDS011;63121;51.458;-0.110;2022-11-02T17:22:50;12.95;;;1.98;;
74614;SDS011;63121;51.458;-0.110;2022-11-02T17:25:25;9.07;;;1.75;;
74614;SDS011;63121;51.458;-0.110;2022-11-02T17:28:02;15.82;;;2.38;;
74614;SDS011;63121;51.458;-0.110;2022-11-02T17:30:48;10.80;;;2.95;;
74614;SDS011;63121;51.458;-0.110;2022-11-02T17:33:26;13.82;;;2.38;;
74614;SDS011;63121;51.458;-0.110;2022-11-02T17:35:55;14.48;;;2.45;;
74614;SDS011;63121;51.458;-0.110;2022-11-02T17:38:27;11.10;;;2.05;;
74614;SDS011;63121;51.458;-0.110;2022-11-02T17:40:53;8.45;;;1.52;;
74614;SDS011;63121;51.458;-0.110;2022-11-02T17:43:19;12.80;;;2.05;;
74614;SDS011;63121;51.458;-0.110;2022-11-02T17:45:51;9.07;;;1.40;;
74614;SDS011;63121;51.458;-0.110;2022-11-02T17:48:18;11.05;;;1.98;;
74614;SDS011;63121;51.458;-0.110;2022-11-02T17:50:43;11.53;;;1.70;;
74614;SDS011;63121;51.458;-0.110;2022-11-02T17:53:10;10.77;;;2.20;;
74614;SDS011;63121;51.458;-0.110;2022-11-02T17:58:04;11.63;;;1.67;;
74614;SDS011;63121;51.458;-0.110;2022-11-02T18:00:31;15.98;;;2.35;;
74614;SDS011;63121;51.458;-0.110;2022-11-02T18:02:58;12.25;;;2.25;;
74614;SDS011;63121;51.458;-0.110;2022-11-02T18:07:50;15.38;;;2.28;;
74614;SDS011;63121;51.458;-0.110;2022-11-02T18:10:16;15.02;;;2.25;;